Zeigler, Illinois
Current Conditions -  °F | °C
As of 3:35 AM on Thursday 27 Nov 2014 (Local Time) from KMWA Reporting Station
Overcast Overcast  
Wind Chill: -2°   Ceiling: 1300
Heat Index:   Visibility: 7mi
Dew Point:   Wind: 6mph
Humidity: 93%   Direction: 340°NNW
Pressure: 30.3"   Gusts: NA
Location:  37.9°N, 89.05°W
Report Text: KMWA 270935Z AUTO 34005KT 7SM SCT009 BKN013 OVC019 01/M00 A3030 RMK AO2
Loading
Personal Weather Stations






























Interactive Weather Map New forecast layout! Learn more

10-Day Weather Forecast

Advertisements
Track Severe Weather on mobile